Time;durP1;ratioP1;P1;durP2;ratioP2;P2;SDS_P1;SDS_P2;PMS_P1;PMS_P2;Temp;Humidity;BMP_temperature;BMP_pressure;BME280_temperature;BME280_humidity;BME280_pressure;Samples;Min_cycle;Max_cycle;Signal;HPM_P1;HPM_P2
2022/03/18 00:01:12;;;;;;;8.27;3.55;;;;;;;9.93;86.50;101823.56;5105298;28;20126;-67
2022/03/18 00:03:37;;;;;;;7.57;3.53;;;;;;;9.86;85.04;101820.03;5112882;28;20019;-67
2022/03/18 00:06:03;;;;;;;10.80;4.22;;;;;;;9.88;84.79;101828.00;5106989;28;20043;-67
2022/03/18 00:08:28;;;;;;;10.43;3.63;;;;;;;9.87;84.47;101826.19;5091969;28;20028;-67
2022/03/18 00:10:55;;;;;;;5.95;3.28;;;;;;;9.83;85.13;101820.03;5079017;28;20372;-67
2022/03/18 00:13:22;;;;;;;7.35;3.50;;;;;;;9.86;84.69;101835.06;5097973;28;20573;-67
2022/03/18 00:15:47;;;;;;;6.72;3.50;;;;;;;9.81;83.72;101827.13;5092555;28;20107;-67
2022/03/18 00:18:13;;;;;;;5.63;3.20;;;;;;;9.86;84.02;101830.66;5096440;28;20166;-67
2022/03/18 00:20:39;;;;;;;8.65;3.60;;;;;;;9.82;84.83;101828.88;5091553;28;20020;-67
2022/03/18 00:23:05;;;;;;;6.32;3.03;;;;;;;9.88;84.65;101833.31;5075510;28;20399;-67
2022/03/18 00:25:31;;;;;;;7.78;3.60;;;;;;;9.88;84.36;101834.22;5091936;28;20031;-67
2022/03/18 00:27:56;;;;;;;8.20;3.35;;;;;;;9.83;83.44;101835.09;5093016;28;20041;-67
2022/03/18 00:30:22;;;;;;;5.85;3.10;;;;;;;9.84;83.50;101832.41;5094875;28;20032;-67
2022/03/18 00:32:49;;;;;;;5.30;2.90;;;;;;;9.88;84.37;101835.97;5103671;28;20494;-67
2022/03/18 00:35:15;;;;;;;6.05;3.20;;;;;;;9.75;83.70;101837.72;5080330;28;20055;-67
2022/03/18 00:37:40;;;;;;;7.13;2.95;;;;;;;9.76;83.62;101844.81;5075712;28;20020;-67
2022/03/18 00:40:07;;;;;;;9.30;3.05;;;;;;;9.76;83.19;101828.88;5089600;28;20020;-67
2022/03/18 00:42:33;;;;;;;9.32;3.17;;;;;;;9.66;82.47;101837.75;5071531;28;20114;-67
2022/03/18 00:45:00;;;;;;;5.63;3.00;;;;;;;9.70;82.54;101847.50;5090094;28;20115;-67
2022/03/18 00:52:53;;;;;;;9.10;2.92;;;;;;;9.68;82.84;101849.25;5101129;28;20104;-67
2022/03/18 00:55:19;;;;;;;7.43;2.70;;;;;;;9.59;82.10;101841.28;5093114;28;20688;-67
2022/03/18 00:57:44;;;;;;;4.47;2.70;;;;;;;9.60;82.62;101848.38;5111892;28;20092;-67
2022/03/18 01:00:10;;;;;;;7.82;3.00;;;;;;;9.56;82.59;101849.25;5105675;28;20563;-67
2022/03/18 01:02:36;;;;;;;7.05;3.35;;;;;;;9.53;83.00;101843.94;5091031;28;20446;-67
2022/03/18 01:05:02;;;;;;;9.60;3.50;;;;;;;9.58;83.27;101843.94;5100898;28;20031;-67
2022/03/18 01:07:28;;;;;;;7.25;3.13;;;;;;;9.56;82.10;101851.00;5105321;28;20020;-67
2022/03/18 01:09:54;;;;;;;6.57;2.95;;;;;;;9.55;82.80;101851.91;5096897;28;20028;-67
2022/03/18 01:12:19;;;;;;;7.05;3.53;;;;;;;9.57;82.72;101858.97;5110837;28;20107;-67
2022/03/18 01:14:45;;;;;;;5.32;2.88;;;;;;;9.58;82.88;101849.25;5110954;28;20050;-67
2022/03/18 01:17:11;;;;;;;8.57;3.00;;;;;;;9.56;82.22;101851.91;5101979;28;20393;-67
2022/03/18 01:19:36;;;;;;;9.40;3.30;;;;;;;9.52;83.30;101850.16;5090278;28;20044;-67
2022/03/18 01:22:02;;;;;;;7.35;3.15;;;;;;;9.51;83.75;101848.34;5090883;28;20428;-67
2022/03/18 01:24:27;;;;;;;9.30;3.97;;;;;;;9.55;82.84;101858.13;5090786;28;20028;-67
2022/03/18 01:26:53;;;;;;;5.70;3.50;;;;;;;9.57;83.55;101858.97;5106177;28;20076;-67
2022/03/18 01:29:18;;;;;;;5.72;2.88;;;;;;;9.58;83.11;101858.13;5110788;28;20023;-67
2022/03/18 01:31:43;;;;;;;9.48;3.78;;;;;;;9.50;83.24;101845.69;5107296;28;20478;-67
2022/03/18 01:34:10;;;;;;;7.25;3.33;;;;;;;9.48;83.55;101848.34;5097343;28;20495;-67
2022/03/18 01:36:36;;;;;;;6.53;3.38;;;;;;;9.48;83.64;101848.34;5090461;28;20024;-67
2022/03/18 01:39:02;;;;;;;6.60;3.30;;;;;;;9.44;83.57;101851.88;5092059;28;20023;-67
2022/03/18 01:41:28;;;;;;;7.28;3.08;;;;;;;9.46;84.02;101860.75;5090947;28;20028;-67
2022/03/18 01:43:53;;;;;;;6.82;3.10;;;;;;;9.49;83.52;101854.56;5090423;28;20088;-67
2022/03/18 01:46:19;;;;;;;7.88;3.25;;;;;;;9.50;83.53;101851.91;5090247;28;20020;-67
2022/03/18 01:48:45;;;;;;;6.85;3.28;;;;;;;9.51;83.64;101856.31;5089909;28;20035;-67
2022/03/18 01:51:15;;;;;;;7.78;4.38;;;;;;;9.53;83.54;101851.91;5092677;28;20024;-67
2022/03/18 01:53:45;;;;;;;7.88;3.38;;;;;;;9.48;83.23;101851.00;5091095;28;20027;-67
2022/03/18 01:56:11;;;;;;;11.65;4.18;;;;;;;9.44;82.88;101851.03;5110096;28;20402;-67
2022/03/18 01:58:37;;;;;;;7.88;3.38;;;;;;;9.46;84.09;101860.75;5110220;28;20027;-67
2022/03/18 02:01:03;;;;;;;8.63;3.38;;;;;;;9.40;83.36;101854.53;5103245;28;20080;-67
2022/03/18 02:03:29;;;;;;;8.95;3.10;;;;;;;9.43;83.47;101858.09;5071929;28;20061;-67
2022/03/18 02:05:55;;;;;;;5.28;3.08;;;;;;;9.41;83.98;101845.72;5090062;28;20040;-67
2022/03/18 02:08:21;;;;;;;6.30;2.97;;;;;;;9.47;83.89;101866.94;5090028;28;20028;-67
2022/03/18 02:10:46;;;;;;;7.72;2.92;;;;;;;9.43;83.59;101854.53;5089752;28;20084;-67
2022/03/18 02:13:12;;;;;;;7.22;3.75;;;;;;;9.29;84.01;101830.66;5092254;28;20522;-67
2022/03/18 02:15:38;;;;;;;8.65;2.95;;;;;;;9.42;82.49;101869.59;5089664;28;20046;-66
2022/03/18 02:18:05;;;;;;;8.63;3.40;;;;;;;9.37;83.85;101865.16;5103716;28;20054;-66
2022/03/18 02:20:32;;;;;;;7.53;2.78;;;;;;;9.41;83.79;101867.81;5089204;28;20035;-66
2022/03/18 02:22:58;;;;;;;5.95;3.13;;;;;;;9.30;83.51;101853.66;5092251;28;20181;-66
2022/03/18 02:25:23;;;;;;;11.00;3.80;;;;;;;9.39;82.86;101882.84;5095717;28;20028;-66
2022/03/18 02:28:15;;;;;;;8.55;3.15;;;;;;;9.40;83.87;101874.03;5109469;28;20027;-66
2022/03/18 02:30:40;;;;;;;8.02;2.90;;;;;;;9.38;84.08;101874.88;5104825;28;20043;-66
2022/03/18 02:33:05;;;;;;;7.30;3.80;;;;;;;9.40;83.29;101879.34;5109911;28;20162;-66
2022/03/18 02:35:32;;;;;;;6.53;3.00;;;;;;;9.43;83.78;101874.03;5109895;28;20042;-66
2022/03/18 02:37:59;;;;;;;7.30;3.28;;;;;;;9.38;83.08;101862.50;5109879;28;20023;-66
2022/03/18 02:40:26;;;;;;;9.05;3.55;;;;;;;9.37;83.45;101874.03;5106669;28;20035;-66
2022/03/18 02:42:51;;;;;;;5.97;3.50;;;;;;;9.40;83.43;101884.66;5108126;28;20046;-66
2022/03/18 02:45:17;;;;;;;5.85;2.92;;;;;;;9.37;82.96;101876.69;5105312;28;20027;-66
2022/03/18 02:47:43;;;;;;;6.82;2.65;;;;;;;9.13;83.37;101835.03;5109544;28;20046;-66
2022/03/18 02:50:08;;;;;;;9.55;3.58;;;;;;;9.40;83.20;101886.41;5109715;28;20470;-67
2022/03/18 02:52:34;;;;;;;12.52;3.78;;;;;;;9.36;82.72;101885.50;5102501;28;20039;-67
2022/03/18 02:54:59;;;;;;;6.20;2.83;;;;;;;9.39;83.52;101880.19;5088651;28;20028;-66
2022/03/18 02:57:25;;;;;;;5.90;3.40;;;;;;;9.40;83.18;101882.00;5091236;28;20034;-66
2022/03/18 02:59:50;;;;;;;5.70;3.00;;;;;;;9.37;82.34;101887.31;5094519;28;20087;-66
2022/03/18 03:02:16;;;;;;;12.45;3.88;;;;;;;9.30;83.30;101864.28;5088557;28;20425;-66
2022/03/18 03:07:59;;;;;;;5.25;2.83;;;;;;;9.32;83.57;101881.09;5073628;28;20039;-66
2022/03/18 03:10:11;;;;;;;7.78;3.13;;;;;;;9.24;82.75;101881.06;5089178;28;20031;-67
2022/03/18 03:12:40;;;;;;;7.00;2.88;;;;;;;9.32;83.33;101883.75;5089849;28;20103;-67
2022/03/18 03:15:07;;;;;;;8.50;3.75;;;;;;;9.27;83.27;101877.53;5089257;28;20020;-67
2022/03/18 03:17:32;;;;;;;5.30;3.15;;;;;;;9.31;82.72;101892.59;5101661;28;20114;-67
2022/03/18 03:19:58;;;;;;;7.88;3.10;;;;;;;9.33;83.54;101890.81;5092065;28;20514;-67
2022/03/18 03:22:24;;;;;;;6.45;3.20;;;;;;;9.35;83.72;101894.38;5089406;28;20038;-67
2022/03/18 03:24:49;;;;;;;12.20;3.90;;;;;;;9.33;83.73;101902.34;5089375;28;20474;-67
2022/03/18 03:27:15;;;;;;;5.15;2.72;;;;;;;9.30;84.81;101889.06;5091839;28;20067;-67
2022/03/18 03:29:40;;;;;;;5.40;2.78;;;;;;;9.30;84.40;101902.34;5091005;28;20102;-67
2022/03/18 03:32:06;;;;;;;6.78;3.00;;;;;;;9.29;84.06;101899.69;5093347;28;20443;-67
2022/03/18 03:34:32;;;;;;;6.70;2.90;;;;;;;9.22;83.94;101903.19;5095474;28;20031;-67
2022/03/18 03:36:58;;;;;;;5.75;2.88;;;;;;;9.25;84.24;101909.41;5093340;28;20127;-67
2022/03/18 03:39:24;;;;;;;6.72;3.40;;;;;;;9.25;84.29;101924.44;5093255;28;20123;-67
2022/03/18 03:41:49;;;;;;;10.88;3.47;;;;;;;9.25;83.94;101919.13;5096048;28;20028;-67
2022/03/18 03:44:16;;;;;;;7.43;3.20;;;;;;;9.21;83.65;101914.69;5093330;28;20031;-67
2022/03/18 03:46:42;;;;;;;6.03;2.85;;;;;;;9.20;83.99;101915.56;5092970;28;20032;-67
2022/03/18 03:49:07;;;;;;;8.20;3.00;;;;;;;9.27;84.94;101922.69;5093105;28;20027;-67
2022/03/18 03:51:34;;;;;;;6.40;3.10;;;;;;;9.26;84.78;101926.19;5093012;28;20040;-67
2022/03/18 03:53:59;;;;;;;7.30;3.38;;;;;;;9.28;84.69;101920.03;5093031;28;20075;-67
2022/03/18 03:56:24;;;;;;;7.18;2.85;;;;;;;9.28;84.09;101928.00;5094373;28;20570;-66
2022/03/18 03:58:50;;;;;;;8.93;3.15;;;;;;;9.22;83.90;101913.81;5077928;28;20020;-66
2022/03/18 04:01:15;;;;;;;8.45;3.25;;;;;;;9.27;84.99;101933.31;5110020;28;20096;-66
2022/03/18 04:03:41;;;;;;;8.07;3.63;;;;;;;9.28;85.30;101935.06;5095047;28;20028;-66
2022/03/18 04:06:06;;;;;;;9.25;3.08;;;;;;;9.25;84.30;101932.41;5113035;28;20027;-66
2022/03/18 04:08:32;;;;;;;9.02;3.00;;;;;;;9.29;84.93;101937.72;5109134;28;20020;-66
2022/03/18 04:10:57;;;;;;;8.68;3.17;;;;;;;9.30;84.70;101943.94;5103729;28;20514;-67
2022/03/18 04:13:22;;;;;;;6.45;3.03;;;;;;;9.24;84.05;101941.25;5112748;28;20028;-67
2022/03/18 04:15:48;;;;;;;6.32;3.47;;;;;;;9.25;83.80;101945.69;5112786;28;20024;-67
2022/03/18 04:18:14;;;;;;;5.43;3.05;;;;;;;9.28;84.04;101945.69;5094669;28;20043;-67
2022/03/18 04:20:39;;;;;;;4.97;2.92;;;;;;;9.30;84.16;101946.59;5092086;28;20573;-67
2022/03/18 04:23:08;;;;;;;7.60;3.28;;;;;;;9.26;84.65;101955.41;5092572;28;20114;-67
2022/03/18 04:25:33;;;;;;;6.55;3.15;;;;;;;9.25;83.86;101954.53;5092607;28;20089;-67
2022/03/18 04:27:59;;;;;;;6.82;2.95;;;;;;;9.24;83.08;101951.88;5092724;28;20016;-67
2022/03/18 04:30:24;;;;;;;7.00;3.72;;;;;;;9.27;83.27;101957.19;5092166;28;20035;-66
2022/03/18 04:32:50;;;;;;;5.82;2.72;;;;;;;9.22;83.89;101948.31;5076848;28;20027;-66
2022/03/18 04:35:15;;;;;;;8.77;3.05;;;;;;;9.14;82.52;101953.59;5091352;28;20039;-66
2022/03/18 04:37:42;;;;;;;7.30;2.85;;;;;;;9.14;82.50;101955.38;5092275;28;20027;-66
2022/03/18 04:40:12;;;;;;;6.32;2.72;;;;;;;9.18;82.48;101963.34;5095898;28;20110;-66
2022/03/18 04:42:38;;;;;;;6.90;3.05;;;;;;;9.06;83.39;101950.03;5112591;28;20024;-66
2022/03/18 04:45:04;;;;;;;7.72;3.58;;;;;;;9.15;82.93;101970.41;5112357;28;20076;-66
2022/03/18 04:47:30;;;;;;;7.93;3.47;;;;;;;9.19;83.00;101966.91;5112022;28;20027;-66
2022/03/18 04:49:56;;;;;;;9.18;3.40;;;;;;;9.23;83.28;101963.38;5108857;28;20035;-66
2022/03/18 04:52:21;;;;;;;5.88;3.40;;;;;;;9.12;83.17;101959.78;5106897;28;20028;-66
2022/03/18 04:54:47;;;;;;;15.45;3.90;;;;;;;9.15;83.28;101966.00;5093955;28;20035;-66
2022/03/18 04:57:21;;;;;;;6.15;3.35;;;;;;;9.12;84.21;101966.00;5091903;28;20028;-66
2022/03/18 04:59:48;;;;;;;7.70;3.53;;;;;;;9.15;83.31;101962.44;5096264;28;20019;-66
2022/03/18 05:02:15;;;;;;;9.30;3.85;;;;;;;9.18;82.95;101970.44;5111805;28;20054;-66
2022/03/18 05:04:44;;;;;;;11.57;3.40;;;;;;;9.21;83.41;101965.13;5112146;28;20023;-66
2022/03/18 05:07:13;;;;;;;7.00;3.28;;;;;;;9.21;83.91;101966.03;5112037;28;20154;-66
2022/03/18 05:09:42;;;;;;;13.38;4.40;;;;;;;9.14;83.47;101973.97;5107729;28;20043;-66
2022/03/18 05:12:09;;;;;;;8.55;3.05;;;;;;;9.17;84.05;101968.66;5112024;28;20095;-66
2022/03/18 05:14:35;;;;;;;8.43;3.42;;;;;;;9.11;83.79;101977.47;5110607;28;20114;-66
2022/03/18 05:17:02;;;;;;;5.30;2.83;;;;;;;9.08;83.74;101979.22;5103668;28;20019;-66
2022/03/18 05:19:27;;;;;;;7.10;3.30;;;;;;;9.06;83.01;101984.53;5089707;28;20040;-66
2022/03/18 05:21:52;;;;;;;8.90;3.05;;;;;;;9.06;83.70;101991.63;5091147;28;20030;-66
2022/03/18 05:24:18;;;;;;;14.68;3.70;;;;;;;9.01;83.75;101998.69;5091013;28;20489;-66
2022/03/18 05:26:46;;;;;;;6.90;3.13;;;;;;;9.06;84.18;101997.81;5090975;28;20043;-66
2022/03/18 05:29:13;;;;;;;14.60;3.47;;;;;;;8.98;84.11;101998.63;5093361;28;20035;-66
2022/03/18 05:31:39;;;;;;;22.75;5.07;;;;;;;9.03;83.60;102002.19;5091103;28;20089;-66
2022/03/18 05:34:05;;;;;;;12.75;3.58;;;;;;;8.91;83.56;102010.97;5093725;28;20039;-66
2022/03/18 05:36:31;;;;;;;8.40;3.05;;;;;;;8.94;83.96;102007.47;5106115;28;20580;-66
2022/03/18 05:38:56;;;;;;;15.88;3.97;;;;;;;8.88;84.11;102010.09;5110987;28;20068;-66
2022/03/18 05:41:22;;;;;;;16.02;3.42;;;;;;;8.93;84.53;102018.94;5110119;28;20494;-66
2022/03/18 05:43:47;;;;;;;8.77;2.80;;;;;;;9.01;84.07;102019.91;5110594;28;20035;-66
2022/03/18 05:46:13;;;;;;;8.07;3.47;;;;;;;8.95;84.05;102014.53;5111287;28;20495;-66
2022/03/18 05:48:38;;;;;;;4.45;2.80;;;;;;;8.98;83.80;102026.06;5111117;28;20028;-66
2022/03/18 05:51:04;;;;;;;11.40;3.97;;;;;;;9.02;84.52;102029.63;5110540;28;20069;-66
2022/03/18 05:53:30;;;;;;;7.45;3.95;;;;;;;8.93;83.89;102029.56;5095595;28;20194;-66
2022/03/18 05:58:41;;;;;;;11.98;3.70;;;;;;;9.02;83.60;102026.97;5108160;28;20034;-66
2022/03/18 06:01:06;;;;;;;9.18;3.55;;;;;;;9.09;83.22;102023.50;5094116;28;20546;-66
2022/03/18 06:03:33;;;;;;;7.18;3.17;;;;;;;9.08;83.50;102027.91;5091905;28;20085;-66
2022/03/18 06:05:59;;;;;;;7.35;3.58;;;;;;;9.08;83.64;102029.66;5090404;28;20054;-66
2022/03/18 06:13:52;;;;;;;6.32;3.15;;;;;;;9.05;84.14;102042.91;5090271;28;20043;-66
2022/03/18 06:16:17;;;;;;;6.65;3.17;;;;;;;9.08;83.65;102042.94;5091774;28;20028;-66
2022/03/18 06:18:43;;;;;;;6.63;3.25;;;;;;;9.12;83.50;102036.78;5110495;28;20571;-66
2022/03/18 06:21:08;;;;;;;10.65;3.35;;;;;;;9.06;83.96;102034.09;5109917;28;20016;-66
2022/03/18 06:23:34;;;;;;;7.30;3.25;;;;;;;9.00;83.15;102047.31;5094739;28;20028;-66
2022/03/18 06:26:01;;;;;;;9.43;3.95;;;;;;;8.99;83.11;102037.59;5089876;28;20433;-66
2022/03/18 06:28:31;;;;;;;6.90;3.95;;;;;;;9.00;82.68;102047.31;5097499;28;20027;-66
2022/03/18 06:30:56;;;;;;;8.80;3.80;;;;;;;9.11;82.37;102051.81;5108749;28;20019;-66
2022/03/18 06:33:22;;;;;;;12.70;4.38;;;;;;;9.07;82.54;102041.16;5110289;28;20042;-66
2022/03/18 06:35:47;;;;;;;6.47;3.35;;;;;;;9.11;82.79;102051.81;5106718;28;20020;-66
2022/03/18 06:38:13;;;;;;;11.02;3.80;;;;;;;9.05;82.55;102053.53;5110400;28;20016;-66
2022/03/18 06:40:38;;;;;;;10.00;4.13;;;;;;;9.00;82.59;102058.81;5100847;28;20024;-66
2022/03/18 06:43:04;;;;;;;6.85;3.30;;;;;;;9.04;82.75;102067.69;5089874;28;20155;-66
2022/03/18 06:45:29;;;;;;;9.68;3.70;;;;;;;9.13;82.96;102067.75;5089767;28;20107;-66
2022/03/18 06:47:54;;;;;;;7.85;3.17;;;;;;;9.22;82.51;102063.38;5092565;28;20077;-66
2022/03/18 06:50:22;;;;;;;8.27;3.95;;;;;;;9.29;82.87;102069.63;5087979;28;20024;-66
2022/03/18 06:52:48;;;;;;;7.28;3.63;;;;;;;9.20;82.37;102066.91;5089189;28;20107;-66
2022/03/18 06:55:13;;;;;;;9.40;3.58;;;;;;;9.32;82.05;102080.25;5097301;28;20118;-66
2022/03/18 06:57:39;;;;;;;6.80;3.58;;;;;;;9.33;81.09;102082.03;5089927;28;20039;-66
2022/03/18 07:00:05;;;;;;;9.38;3.80;;;;;;;9.35;82.03;102080.28;5099943;28;20101;-66
2022/03/18 07:02:30;;;;;;;10.18;3.45;;;;;;;9.37;81.82;102077.63;5097547;28;20138;-66
2022/03/18 07:04:56;;;;;;;7.45;3.63;;;;;;;9.48;82.30;102078.56;5108527;28;20106;-66
2022/03/18 07:07:21;;;;;;;9.13;4.40;;;;;;;9.45;81.03;102081.19;5095641;28;20024;-66
2022/03/18 07:09:47;;;;;;;13.95;3.92;;;;;;;9.43;80.71;102082.94;5091881;28;20027;-66
2022/03/18 07:12:12;;;;;;;12.32;3.53;;;;;;;9.52;80.28;102078.59;5109923;28;20043;-66
2022/03/18 07:14:38;;;;;;;7.22;4.03;;;;;;;9.54;81.02;102082.13;5109739;28;20031;-66
2022/03/18 07:19:47;;;;;;;10.13;3.78;;;;;;;9.50;80.27;102074.13;5091167;28;20055;-66
2022/03/18 07:22:13;;;;;;;13.40;4.03;;;;;;;9.62;81.56;102084.84;5102305;28;20383;-66
2022/03/18 07:24:38;;;;;;;14.10;4.43;;;;;;;9.58;81.04;102085.69;5095946;28;20102;-66
2022/03/18 07:27:04;;;;;;;9.38;4.47;;;;;;;9.72;80.97;102091.97;5108519;28;20057;-66
2022/03/18 07:29:29;;;;;;;9.07;3.90;;;;;;;9.74;80.74;102098.16;5090870;28;20031;-66
2022/03/18 07:31:55;;;;;;;8.00;3.85;;;;;;;9.75;79.77;102095.50;5105119;28;20047;-66
2022/03/18 07:34:24;;;;;;;8.20;3.97;;;;;;;9.75;79.75;102089.31;5100052;28;20387;-66
2022/03/18 07:36:49;;;;;;;12.10;4.35;;;;;;;9.80;79.99;102083.09;5104716;28;20026;-66
2022/03/18 07:39:15;;;;;;;10.50;4.07;;;;;;;9.81;80.04;102089.31;5109335;28;20339;-66
2022/03/18 07:41:40;;;;;;;7.85;4.47;;;;;;;9.89;80.72;102087.56;5090212;28;20056;-67
2022/03/18 07:44:06;;;;;;;12.18;4.45;;;;;;;9.94;80.97;102089.38;5088957;28;20494;-66
2022/03/18 07:46:31;;;;;;;10.90;4.25;;;;;;;9.94;80.44;102089.38;5090746;28;20038;-66
2022/03/18 07:48:57;;;;;;;9.50;4.03;;;;;;;9.86;80.40;102074.28;5100448;28;20039;-66
2022/03/18 07:51:22;;;;;;;10.52;4.60;;;;;;;9.73;80.99;102094.63;5100818;28;20039;-66
2022/03/18 07:53:47;;;;;;;9.02;4.55;;;;;;;9.71;79.67;102096.38;5083692;28;20023;-66
2022/03/18 07:56:13;;;;;;;9.57;4.15;;;;;;;9.60;81.11;102086.59;5099725;28;20197;-66
2022/03/18 07:58:38;;;;;;;9.52;3.88;;;;;;;9.74;80.57;102096.38;5089011;28;20756;-66
2022/03/18 08:01:07;;;;;;;11.80;4.70;;;;;;;9.75;81.71;102106.13;5102986;28;20135;-66
2022/03/18 08:03:33;;;;;;;8.98;4.03;;;;;;;9.92;80.64;102107.06;5108928;28;20091;-66
2022/03/18 08:05:58;;;;;;;9.20;4.50;;;;;;;10.06;81.63;102102.72;5109088;28;20436;-66
2022/03/18 08:08:24;;;;;;;8.55;3.92;;;;;;;10.04;81.35;102107.13;5109373;28;20051;-66
2022/03/18 08:10:51;;;;;;;8.70;4.07;;;;;;;10.09;81.06;102093.88;5106194;28;20031;-66
2022/03/18 08:13:17;;;;;;;10.15;3.55;;;;;;;10.00;79.23;102115.09;5104556;28;20024;-66
2022/03/18 08:15:44;;;;;;;8.60;4.03;;;;;;;9.83;80.08;102108.81;5090518;28;20094;-66
2022/03/18 08:18:10;;;;;;;10.55;3.30;;;;;;;9.84;80.21;102113.25;5106480;28;20039;-66
2022/03/18 08:20:40;;;;;;;12.05;5.15;;;;;;;9.81;80.57;102114.13;5092094;28;20044;-66
2022/03/18 08:23:11;;;;;;;11.15;4.72;;;;;;;9.68;80.45;102099.03;5092296;28;20048;-66
2022/03/18 08:25:37;;;;;;;10.35;4.82;;;;;;;9.82;80.09;102115.91;5091697;28;20104;-66
2022/03/18 08:28:04;;;;;;;12.90;5.30;;;;;;;9.79;79.52;102110.56;5092189;28;20060;-66
2022/03/18 08:30:30;;;;;;;13.20;4.60;;;;;;;9.75;80.69;102116.75;5095371;28;20024;-66
2022/03/18 08:32:55;;;;;;;8.75;4.57;;;;;;;9.94;80.16;102123.94;5095042;28;20038;-66
2022/03/18 08:35:21;;;;;;;13.43;4.40;;;;;;;9.92;79.31;102117.72;5092172;28;20032;-66
2022/03/18 08:37:58;;;;;;;8.70;3.97;;;;;;;9.97;79.78;102129.25;5091190;28;20031;-66
2022/03/18 08:40:35;;;;;;;8.45;4.28;;;;;;;9.92;79.44;102125.69;5097223;28;20031;-66
2022/03/18 08:43:04;;;;;;;9.90;4.47;;;;;;;9.97;79.71;102136.31;5112481;28;20031;-66
2022/03/18 08:45:30;;;;;;;13.40;4.07;;;;;;;10.10;80.57;102139.06;5112311;28;20091;-66
2022/03/18 08:47:55;;;;;;;12.80;4.95;;;;;;;10.17;80.77;102130.25;5099553;28;20630;-66
2022/03/18 08:50:23;;;;;;;14.88;4.78;;;;;;;10.31;79.50;102130.28;5091272;28;20031;-66
2022/03/18 08:52:50;;;;;;;10.93;4.53;;;;;;;10.31;77.96;102128.47;5092038;28;20032;-66
2022/03/18 08:55:16;;;;;;;9.35;4.20;;;;;;;10.56;77.66;102132.97;5091412;28;20047;-66
2022/03/18 08:57:42;;;;;;;12.48;4.85;;;;;;;10.73;77.58;102142.72;5102065;28;20085;-66
2022/03/18 09:00:10;;;;;;;13.20;4.25;;;;;;;10.67;77.49;102127.66;5110746;28;20048;-66
2022/03/18 09:02:38;;;;;;;10.43;5.63;;;;;;;10.72;76.69;102135.66;5093393;28;20077;-66
2022/03/18 09:05:05;;;;;;;14.38;4.93;;;;;;;10.87;75.27;102128.56;5092715;28;20081;-66
2022/03/18 09:07:32;;;;;;;10.48;4.65;;;;;;;10.82;76.07;102122.34;5090712;28;20024;-66
2022/03/18 09:09:57;;;;;;;10.13;5.07;;;;;;;10.94;75.71;102143.63;5093390;28;20039;-66
2022/03/18 09:12:23;;;;;;;12.73;6.25;;;;;;;11.26;74.78;102149.84;5091519;28;20028;-66
2022/03/18 09:14:49;;;;;;;14.52;4.53;;;;;;;11.31;75.32;102134.72;5094309;28;20547;-66
2022/03/18 09:17:14;;;;;;;8.18;4.07;;;;;;;11.43;72.80;102140.00;5091413;28;20024;-66
2022/03/18 09:19:41;;;;;;;12.45;4.15;;;;;;;11.46;73.33;102140.03;5090888;28;20403;-66
2022/03/18 09:22:08;;;;;;;11.50;4.90;;;;;;;11.48;72.59;102142.69;5091261;28;20027;-66
2022/03/18 09:24:35;;;;;;;13.43;4.80;;;;;;;11.50;73.62;102135.53;5091236;28;20059;-66
2022/03/18 09:27:00;;;;;;;10.30;5.13;;;;;;;11.64;71.88;102134.69;5090122;28;20518;-66
2022/03/18 09:29:26;;;;;;;10.02;4.53;;;;;;;11.82;70.90;102145.28;5091225;28;20122;-66
2022/03/18 09:31:53;;;;;;;8.88;4.38;;;;;;;11.99;70.88;102150.53;5107959;28;20019;-66
2022/03/18 09:34:24;;;;;;;12.25;4.53;;;;;;;12.26;70.64;102141.47;5107746;28;20083;-66
2022/03/18 09:36:51;;;;;;;10.73;4.70;;;;;;;12.51;69.31;102143.13;5111864;28;20110;-66
2022/03/18 09:39:17;;;;;;;10.80;4.47;;;;;;;12.49;67.74;102144.91;5093272;28;20168;-66
2022/03/18 09:41:42;;;;;;;9.45;4.88;;;;;;;12.67;67.68;102143.00;5111577;28;20106;-66
2022/03/18 09:44:09;;;;;;;12.73;5.00;;;;;;;12.87;65.91;102140.16;5111586;28;20035;-66
2022/03/18 09:46:35;;;;;;;10.80;4.47;;;;;;;13.33;65.77;102135.34;5110970;28;20023;-66
2022/03/18 09:49:02;;;;;;;8.48;3.85;;;;;;;13.71;63.62;102135.78;5110753;28;20398;-66
2022/03/18 09:51:28;;;;;;;9.75;4.15;;;;;;;13.96;62.88;102140.84;5095075;28;20031;-66
2022/03/18 09:53:54;;;;;;;11.40;4.55;;;;;;;14.08;61.48;102142.47;5090531;28;20028;-66
2022/03/18 09:56:21;;;;;;;9.35;5.47;;;;;;;14.28;61.04;102140.47;5089236;28;20034;-66
2022/03/18 09:58:46;;;;;;;10.88;4.10;;;;;;;14.18;60.71;102145.00;5090632;28;20049;-66
2022/03/18 10:01:12;;;;;;;10.18;5.20;;;;;;;14.08;62.27;102137.13;5107208;28;20027;-66
2022/03/18 10:03:41;;;;;;;8.23;4.38;;;;;;;14.21;61.48;102136.06;5111107;28;20020;-66
2022/03/18 10:06:08;;;;;;;17.73;6.25;;;;;;;14.48;61.36;102130.31;5110534;28;20035;-66
2022/03/18 10:08:39;;;;;;;11.25;4.63;;;;;;;14.66;58.23;102138.09;5110708;28;20116;-66
2022/03/18 10:11:18;;;;;;;10.65;4.63;;;;;;;14.94;59.79;102139.41;5104039;28;20027;-66
2022/03/18 10:13:51;;;;;;;11.30;5.00;;;;;;;14.88;57.80;102139.50;5090265;28;20028;-66
2022/03/18 10:16:51;;;;;;;11.40;5.05;;;;;;;15.05;57.65;102142.81;5092765;28;20039;-66
2022/03/18 10:19:19;;;;;;;17.85;5.18;;;;;;;15.06;58.86;102144.56;5110867;28;20047;-66
2022/03/18 10:21:59;;;;;;;12.98;4.95;;;;;;;14.89;59.20;102140.41;5110935;28;20434;-66
2022/03/18 10:24:34;;;;;;;13.07;5.10;;;;;;;14.74;58.80;102144.22;5110614;28;20032;-66
2022/03/18 10:27:17;;;;;;;13.88;5.50;;;;;;;14.68;59.25;102138.94;5110225;28;20106;-66
2022/03/18 10:29:44;;;;;;;11.60;5.88;;;;;;;14.56;59.17;102139.16;5110335;28;20042;-66
2022/03/18 10:32:11;;;;;;;12.95;5.45;;;;;;;14.23;59.78;102143.16;5110359;28;20030;-66
2022/03/18 10:37:25;;;;;;;12.20;5.55;;;;;;;14.26;60.34;102136.91;5109911;28;20031;-66
2022/03/18 10:39:58;;;;;;;11.95;5.45;;;;;;;14.12;61.53;102138.84;5106924;28;20027;-66
2022/03/18 10:42:24;;;;;;;12.85;6.00;;;;;;;13.99;61.37;102145.25;5108962;28;20055;-66
2022/03/18 10:44:52;;;;;;;16.15;6.25;;;;;;;14.16;62.02;102145.94;5091351;28;20108;-66
2022/03/18 10:47:35;;;;;;;12.98;5.40;;;;;;;14.00;61.04;102155.06;5110086;28;20027;-66
2022/03/18 10:50:10;;;;;;;15.77;6.37;;;;;;;14.17;61.86;102142.34;5109723;28;20023;-66
2022/03/18 10:52:45;;;;;;;11.55;5.80;;;;;;;14.13;62.72;102140.63;5083897;28;20629;-66
2022/03/18 10:55:23;;;;;;;12.73;6.43;;;;;;;14.33;60.90;102143.97;5088402;28;20431;-66
2022/03/18 10:58:03;;;;;;;13.20;6.63;;;;;;;14.38;61.59;102144.78;5089884;28;20462;-66
2022/03/18 11:00:31;;;;;;;12.70;6.22;;;;;;;14.39;62.23;102149.22;5099908;28;20118;-66
2022/03/18 11:03:00;;;;;;;12.40;6.45;;;;;;;14.42;60.53;102150.06;5094396;28;20523;-66
2022/03/18 11:05:30;;;;;;;12.88;6.38;;;;;;;14.34;60.83;102151.06;5092132;28;20523;-66
2022/03/18 11:07:56;;;;;;;11.02;5.88;;;;;;;14.48;61.22;102141.94;5089337;28;20463;-66
2022/03/18 11:11:27;;;;;;;17.95;6.85;;;;;;;14.88;60.39;102154.69;5088985;28;20428;-66
2022/03/18 11:13:21;;;;;;;15.48;7.22;;;;;;;15.03;60.51;102151.78;5079184;28;20043;-66
2022/03/18 11:15:46;;;;;;;15.25;7.97;;;;;;;15.17;59.88;102152.44;5109519;28;20039;-66
2022/03/18 11:18:13;;;;;;;17.75;10.10;;;;;;;14.96;58.47;102148.31;5091817;28;20075;-66
2022/03/18 11:20:43;;;;;;;20.48;10.38;;;;;;;15.00;58.27;102142.00;5088990;28;20114;-66
2022/03/18 11:23:17;;;;;;;19.92;9.43;;;;;;;14.87;56.53;102148.47;5089920;28;20028;-66
2022/03/18 11:25:54;;;;;;;23.08;10.90;;;;;;;14.94;57.42;102149.25;5091504;28;20073;-66
2022/03/18 11:28:20;;;;;;;20.95;10.50;;;;;;;14.98;56.68;102135.78;5090673;28;20034;-66
2022/03/18 11:30:48;;;;;;;20.10;10.50;;;;;;;15.24;55.12;102138.88;5088695;28;20539;-66
2022/03/18 11:33:13;;;;;;;21.25;10.02;;;;;;;15.11;56.22;102147.16;5088821;28;20020;-66
2022/03/18 11:35:47;;;;;;;18.17;11.07;;;;;;;15.06;55.66;102144.56;5089259;28;20034;-66
2022/03/18 11:38:17;;;;;;;20.27;9.00;;;;;;;15.02;56.76;102140.19;5089265;28;20421;-66
2022/03/18 11:40:58;;;;;;;20.63;10.45;;;;;;;14.97;57.11;102131.34;5089604;28;20114;-66
2022/03/18 11:43:42;;;;;;;19.17;9.82;;;;;;;15.12;56.50;102140.91;5089109;28;20093;-66
2022/03/18 11:46:13;;;;;;;19.00;9.52;;;;;;;14.93;57.40;102151.03;5089476;28;20042;-66
2022/03/18 11:49:02;;;;;;;19.85;10.43;;;;;;;14.92;58.06;102126.97;5089329;28;20028;-66